Schedule Details

Flight Number: CPX779
Departure: Chinggis Khaan International Airport (ZMUB) at N/A
Arrival: Incheon International Airport (RKSI) at N/A
Route: SND A575 PIDOX V1 PAMDA A326 DONVO G597 GONAV GONAV2M


Current Weather Information
ZMUB 180700Z 26003MPS CAVOK M06/M22 Q1010 NOSIG RMK QFE650.8 22
RKSI 180630Z 30007KT CAVOK 02/M07 Q1025 NOSIG

Route Map